createdAt,value
2023-05-13T00:01:02.254Z,12.10
2023-05-13T00:02:35.467Z,12.37
2023-05-13T00:04:09.361Z,12.83
2023-05-13T00:05:42.453Z,12.47
2023-05-13T00:07:14.601Z,13.80
2023-05-13T00:08:47.748Z,12.57
2023-05-13T00:10:22.567Z,13.43
2023-05-13T00:11:55.856Z,13.83
2023-05-13T00:13:27.959Z,14.20
2023-05-13T00:15:01.109Z,14.13
2023-05-13T00:16:33.240Z,15.13
2023-05-13T00:18:06.480Z,14.47
2023-05-13T00:19:38.641Z,13.70
2023-05-13T00:21:11.776Z,13.80
2023-05-13T00:22:43.851Z,13.73
2023-05-13T00:24:16.970Z,14.20
2023-05-13T00:25:51.382Z,13.23
2023-05-13T00:27:24.475Z,14.00
2023-05-13T00:28:57.580Z,12.07
2023-05-13T00:30:29.822Z,12.13
2023-05-13T00:32:03.280Z,12.47
2023-05-13T00:33:35.511Z,11.80
2023-05-13T00:35:09.242Z,12.07
2023-05-13T00:36:42.421Z,11.33
2023-05-13T00:38:16.119Z,11.30
2023-05-13T00:39:48.441Z,11.30
2023-05-13T00:41:23.336Z,10.03
2023-05-13T00:42:56.507Z,10.23
2023-05-13T00:44:29.571Z,10.23
2023-05-13T00:46:03.170Z,9.30
2023-05-13T00:47:35.369Z,9.00
2023-05-13T00:49:08.574Z,9.53
2023-05-13T00:50:44.636Z,9.50
2023-05-13T00:52:17.958Z,10.13
2023-05-13T00:53:51.104Z,9.43
2023-05-13T00:55:24.283Z,9.90
2023-05-13T00:56:59.507Z,10.03
2023-05-13T00:58:32.665Z,9.50
2023-05-13T01:00:05.874Z,9.50
2023-05-13T01:01:46.397Z,11.33
2023-05-13T01:03:28.230Z,11.07
2023-05-13T01:05:10.582Z,12.70
2023-05-13T01:06:53.256Z,12.53
2023-05-13T01:08:36.526Z,12.83
2023-05-13T01:10:15.387Z,12.43
2023-05-13T01:11:51.768Z,13.60
2023-05-13T01:13:32.167Z,13.10
2023-05-13T01:15:06.683Z,13.47
2023-05-13T01:16:43.167Z,12.70
2023-05-13T01:18:20.742Z,12.07
2023-05-13T01:19:56.905Z,12.90
2023-05-13T01:21:36.481Z,12.97
2023-05-13T01:23:09.591Z,13.10
2023-05-13T01:24:41.788Z,12.77
2023-05-13T01:26:14.958Z,12.73
2023-05-13T01:27:48.152Z,12.47
2023-05-13T01:29:23.134Z,12.57
2023-05-13T01:30:57.320Z,11.90
2023-05-13T01:32:32.146Z,12.27
2023-05-13T01:34:10.419Z,13.00
2023-05-13T01:35:44.315Z,11.00
2023-05-13T01:37:18.781Z,10.57
2023-05-13T01:38:53.030Z,10.73
2023-05-13T01:40:32.771Z,9.93
2023-05-13T01:42:10.591Z,10.13
2023-05-13T01:43:43.741Z,10.37
2023-05-13T01:45:17.007Z,10.53
2023-05-13T01:46:50.676Z,11.13
2023-05-13T01:48:24.587Z,9.57
2023-05-13T01:49:58.122Z,10.83
2023-05-13T01:51:31.941Z,9.93
2023-05-13T01:53:05.395Z,10.53
2023-05-13T01:54:38.559Z,9.00
2023-05-13T01:56:14.685Z,8.77
2023-05-13T01:57:48.312Z,9.23
2023-05-13T01:59:21.460Z,9.17
2023-05-13T02:00:54.567Z,9.17
2023-05-13T02:02:27.647Z,8.73
2023-05-13T02:04:02.279Z,9.17
2023-05-13T02:05:36.731Z,8.50
2023-05-13T02:07:13.163Z,8.67
2023-05-13T02:08:47.605Z,9.00
2023-05-13T02:10:20.812Z,9.30
2023-05-13T02:11:53.008Z,9.30
2023-05-13T02:13:27.724Z,8.67
2023-05-13T02:15:01.011Z,9.13
2023-05-13T02:16:35.782Z,9.23
2023-05-13T02:18:12.154Z,8.40
2023-05-13T02:19:44.347Z,8.97
2023-05-13T02:21:17.452Z,9.57
2023-05-13T02:22:50.529Z,9.37
2023-05-13T02:24:25.837Z,9.30
2023-05-13T02:25:58.951Z,10.90
2023-05-13T02:27:33.782Z,9.83
2023-05-13T02:29:05.942Z,9.37
2023-05-13T02:30:39.087Z,9.43
2023-05-13T02:32:12.483Z,10.23
2023-05-13T02:33:45.675Z,9.83
2023-05-13T02:35:19.165Z,9.63
2023-05-13T02:36:53.636Z,9.60
2023-05-13T02:38:26.750Z,9.03
2023-05-13T02:40:01.288Z,9.17
2023-05-13T02:41:35.887Z,9.20
2023-05-13T02:43:08.938Z,8.60
2023-05-13T02:44:52.819Z,8.67
2023-05-13T02:46:25.221Z,8.73
2023-05-13T02:47:58.691Z,9.50
2023-05-13T02:49:31.730Z,8.47
2023-05-13T02:51:04.987Z,8.30
2023-05-13T02:52:38.891Z,9.87
2023-05-13T02:54:11.974Z,9.87
2023-05-13T02:55:46.398Z,9.73
2023-05-13T02:57:19.458Z,8.63
2023-05-13T02:58:51.575Z,8.90
2023-05-13T03:00:24.728Z,9.00
2023-05-13T03:01:58.793Z,9.33
2023-05-13T03:03:32.090Z,9.67
2023-05-13T03:05:05.954Z,9.17
2023-05-13T03:06:39.090Z,8.63
2023-05-13T03:08:12.434Z,9.47
2023-05-13T03:09:45.495Z,10.43
2023-05-13T03:11:19.961Z,10.10
2023-05-13T03:12:53.113Z,10.53
2023-05-13T03:14:26.415Z,10.40
2023-05-13T03:16:00.168Z,10.33
2023-05-13T03:17:33.737Z,9.60
2023-05-13T03:19:07.140Z,9.40
2023-05-13T03:20:40.435Z,9.10
2023-05-13T03:22:14.525Z,9.07
2023-05-13T03:23:47.686Z,8.70
2023-05-13T03:25:20.493Z,8.60
2023-05-13T03:27:00.134Z,8.30
2023-05-13T03:28:33.468Z,8.30
2023-05-13T03:30:07.539Z,8.47
2023-05-13T03:31:47.650Z,8.73
2023-05-13T03:33:20.853Z,9.40
2023-05-13T03:34:53.967Z,8.90
2023-05-13T03:36:27.089Z,9.43
2023-05-13T03:37:59.467Z,8.83
2023-05-13T03:39:32.692Z,9.07
2023-05-13T03:41:05.852Z,8.63
2023-05-13T03:42:39.376Z,8.40
2023-05-13T03:44:13.205Z,8.63
2023-05-13T03:45:48.576Z,8.47
2023-05-13T03:47:24.823Z,7.90
2023-05-13T03:48:58.195Z,8.20
2023-05-13T03:50:33.063Z,8.17
2023-05-13T03:52:07.974Z,8.70
2023-05-13T03:53:41.084Z,8.30
2023-05-13T03:55:15.196Z,8.00
2023-05-13T03:56:48.324Z,8.70
2023-05-13T03:58:22.923Z,7.97
2023-05-13T03:59:56.079Z,8.33
2023-05-13T04:01:29.136Z,8.03
2023-05-13T04:03:02.242Z,8.23
2023-05-13T04:04:34.372Z,8.20
2023-05-13T04:06:07.788Z,7.93
2023-05-13T04:07:41.224Z,7.87
2023-05-13T04:09:14.318Z,7.53
2023-05-13T04:10:48.605Z,8.07
2023-05-13T04:12:20.676Z,7.67
2023-05-13T04:13:55.438Z,7.73
2023-05-13T04:15:27.512Z,7.50
2023-05-13T04:17:00.678Z,7.80
2023-05-13T04:18:34.222Z,7.67
2023-05-13T04:20:09.488Z,7.27
2023-05-13T04:21:41.544Z,7.50
2023-05-13T04:23:14.630Z,7.57
2023-05-13T04:24:47.688Z,6.93
2023-05-13T04:26:21.670Z,6.93
2023-05-13T04:27:54.970Z,7.63
2023-05-13T04:29:37.247Z,6.57
2023-05-13T04:31:09.495Z,6.70
2023-05-13T04:32:43.125Z,6.73
2023-05-13T04:34:17.201Z,7.30
2023-05-13T04:35:50.989Z,6.43
2023-05-13T04:37:24.307Z,6.70
2023-05-13T04:38:59.901Z,7.20
2023-05-13T04:40:33.528Z,6.57
2023-05-13T04:42:12.640Z,7.07
2023-05-13T04:43:45.810Z,7.10
2023-05-13T04:45:20.349Z,6.83
2023-05-13T04:46:53.630Z,6.93
2023-05-13T04:48:28.766Z,7.03
2023-05-13T04:50:04.033Z,7.47
2023-05-13T04:51:38.605Z,7.77
2023-05-13T04:53:11.565Z,7.37
2023-05-13T04:54:45.056Z,7.00
2023-05-13T04:56:18.409Z,7.43
2023-05-13T04:57:51.868Z,7.03
2023-05-13T04:59:24.961Z,7.60
2023-05-13T05:00:59.410Z,7.50
2023-05-13T05:02:31.641Z,7.80
2023-05-13T05:04:05.082Z,7.53
2023-05-13T05:05:39.380Z,7.10
2023-05-13T05:07:13.961Z,7.20
2023-05-13T05:08:47.033Z,6.70
2023-05-13T05:10:19.708Z,7.13
2023-05-13T05:11:58.329Z,7.23
2023-05-13T05:13:33.796Z,6.50
2023-05-13T05:15:11.432Z,6.60
2023-05-13T05:16:47.066Z,6.67
2023-05-13T05:18:21.059Z,6.50
2023-05-13T05:19:55.833Z,6.97
2023-05-13T05:21:29.040Z,6.83
2023-05-13T05:23:02.372Z,7.57
2023-05-13T05:24:36.064Z,8.00
2023-05-13T05:26:12.090Z,8.90
2023-05-13T05:27:48.014Z,7.07
2023-05-13T05:29:21.352Z,7.10
2023-05-13T05:30:55.037Z,7.47
2023-05-13T05:32:33.897Z,7.10
2023-05-13T05:34:08.754Z,6.70
2023-05-13T05:35:41.934Z,7.03
2023-05-13T05:37:17.680Z,6.80
2023-05-13T05:38:50.816Z,7.33
2023-05-13T05:40:24.044Z,6.07
2023-05-13T05:41:57.799Z,6.13
2023-05-13T05:43:30.941Z,5.60
2023-05-13T05:45:04.091Z,5.30
2023-05-13T05:46:37.473Z,5.60
2023-05-13T05:48:11.447Z,4.87
2023-05-13T05:49:44.635Z,4.90
2023-05-13T05:51:17.994Z,4.67
2023-05-13T05:52:51.137Z,4.80
2023-05-13T05:54:24.298Z,4.70
2023-05-13T05:55:57.410Z,4.70
2023-05-13T05:57:30.655Z,5.03
2023-05-13T05:59:03.716Z,4.40
2023-05-13T06:00:36.821Z,4.50
2023-05-13T06:02:09.960Z,5.00
2023-05-13T06:03:45.886Z,5.00
2023-05-13T06:05:19.075Z,5.10
2023-05-13T06:06:52.821Z,4.70
2023-05-13T06:08:30.099Z,5.20
2023-05-13T06:10:04.618Z,4.90
2023-05-13T06:11:38.922Z,5.07
2023-05-13T06:13:12.322Z,5.00
2023-05-13T06:14:45.357Z,4.60
2023-05-13T06:16:17.664Z,4.53
2023-05-13T06:17:50.827Z,4.70
2023-05-13T06:19:25.368Z,4.37
2023-05-13T06:20:58.442Z,4.50
2023-05-13T06:22:31.505Z,5.03
2023-05-13T06:24:04.694Z,4.57
2023-05-13T06:25:36.847Z,4.70
2023-05-13T06:27:09.935Z,5.10
2023-05-13T06:28:42.999Z,4.90
2023-05-13T06:30:15.362Z,4.77
2023-05-13T06:31:48.999Z,4.83
2023-05-13T06:33:22.351Z,4.57
2023-05-13T06:34:56.907Z,4.80
2023-05-13T06:36:30.281Z,4.90
2023-05-13T06:38:03.339Z,4.30
2023-05-13T06:39:36.445Z,4.83
2023-05-13T06:41:09.516Z,4.50
2023-05-13T06:42:44.299Z,4.60
2023-05-13T06:44:26.199Z,4.50
2023-05-13T06:46:01.858Z,4.20
2023-05-13T06:47:35.823Z,4.50
2023-05-13T06:49:09.535Z,4.57
2023-05-13T06:50:43.904Z,4.27
2023-05-13T06:52:17.051Z,4.57
2023-05-13T06:53:50.130Z,4.67
2023-05-13T06:55:23.176Z,4.10
2023-05-13T06:56:56.716Z,4.00
2023-05-13T06:58:29.817Z,4.10
2023-05-13T07:00:03.645Z,3.80
2023-05-13T07:01:37.340Z,3.83
2023-05-13T07:03:10.566Z,4.07
2023-05-13T07:04:43.617Z,3.70
2023-05-13T07:06:18.065Z,3.47
2023-05-13T07:07:53.661Z,3.77
2023-05-13T07:09:25.849Z,3.70
2023-05-13T07:10:58.880Z,3.90
2023-05-13T07:12:32.676Z,4.00
2023-05-13T07:14:05.824Z,4.07
2023-05-13T07:15:38.952Z,3.70
2023-05-13T07:17:12.069Z,3.53
2023-05-13T07:18:45.409Z,3.57
2023-05-13T07:20:22.271Z,3.80
2023-05-13T07:21:57.420Z,3.57
2023-05-13T07:23:31.543Z,3.93
2023-05-13T07:25:05.164Z,3.70
2023-05-13T07:26:38.787Z,3.50
2023-05-13T07:28:11.822Z,3.40
2023-05-13T07:29:44.878Z,3.30
2023-05-13T07:31:18.058Z,3.30
2023-05-13T07:32:53.687Z,2.70
2023-05-13T07:34:27.075Z,3.23
2023-05-13T07:36:00.140Z,3.10
2023-05-13T07:37:34.600Z,3.10
2023-05-13T07:39:08.636Z,3.30
2023-05-13T07:40:43.097Z,2.70
2023-05-13T07:42:16.863Z,3.20
2023-05-13T07:43:50.078Z,2.77
2023-05-13T07:45:23.350Z,2.63
2023-05-13T07:46:56.629Z,2.67
2023-05-13T07:48:29.790Z,2.87
2023-05-13T07:50:08.589Z,2.70
2023-05-13T07:51:41.970Z,2.83
2023-05-13T07:53:18.947Z,3.10
2023-05-13T07:54:52.760Z,2.57
2023-05-13T07:56:25.972Z,2.57
2023-05-13T07:57:59.011Z,2.87
2023-05-13T07:59:32.069Z,2.67
2023-05-13T08:01:06.064Z,3.00
2023-05-13T08:02:40.072Z,2.53
2023-05-13T08:04:13.503Z,2.50
2023-05-13T08:05:47.993Z,2.80
2023-05-13T08:07:21.059Z,3.00
2023-05-13T08:08:55.485Z,2.83
2023-05-13T08:10:28.610Z,2.80
2023-05-13T08:12:01.695Z,2.80
2023-05-13T08:13:34.820Z,2.80
2023-05-13T08:15:08.936Z,2.90
2023-05-13T08:16:42.065Z,2.90
2023-05-13T08:18:15.141Z,2.83
2023-05-13T08:19:48.278Z,2.70
2023-05-13T08:21:21.327Z,3.20
2023-05-13T08:22:54.461Z,2.97
2023-05-13T08:24:28.881Z,2.80
2023-05-13T08:26:02.324Z,2.80
2023-05-13T08:27:36.370Z,2.63
2023-05-13T08:29:12.879Z,2.77
2023-05-13T08:30:45.958Z,2.73
2023-05-13T08:32:19.873Z,2.80
2023-05-13T08:33:53.374Z,2.90
2023-05-13T08:35:27.057Z,2.90
2023-05-13T08:37:00.144Z,2.70
2023-05-13T08:38:33.711Z,3.23
2023-05-13T08:40:10.926Z,3.30
2023-05-13T08:41:46.060Z,3.30
2023-05-13T08:43:21.022Z,3.57
2023-05-13T08:44:54.895Z,3.20
2023-05-13T08:46:28.884Z,3.67
2023-05-13T08:48:03.283Z,3.50
2023-05-13T08:49:36.400Z,3.30
2023-05-13T08:51:10.232Z,3.37
2023-05-13T08:52:44.413Z,3.20
2023-05-13T08:54:18.598Z,3.60
2023-05-13T08:55:53.226Z,3.33
2023-05-13T08:57:26.453Z,3.30
2023-05-13T08:58:59.539Z,3.63
2023-05-13T09:00:34.371Z,3.40
2023-05-13T09:02:08.102Z,3.67
2023-05-13T09:03:53.391Z,3.67
2023-05-13T09:05:27.034Z,3.13
2023-05-13T09:07:00.758Z,3.10
2023-05-13T09:08:34.026Z,2.97
2023-05-13T09:10:09.377Z,3.20
2023-05-13T09:11:44.790Z,3.27
2023-05-13T09:13:19.287Z,3.10
2023-05-13T09:14:52.465Z,3.30
2023-05-13T09:16:26.909Z,3.17
2023-05-13T09:18:02.544Z,3.30
2023-05-13T09:19:37.175Z,3.07
2023-05-13T09:21:26.768Z,3.10
2023-05-13T09:23:01.609Z,3.37
2023-05-13T09:24:33.688Z,3.50
2023-05-13T09:26:06.808Z,3.30
2023-05-13T09:27:43.786Z,3.80
2023-05-13T09:29:22.482Z,3.33
2023-05-13T09:30:56.832Z,3.27
2023-05-13T09:32:30.067Z,3.10
2023-05-13T09:34:03.131Z,3.53
2023-05-13T09:35:38.068Z,3.30
2023-05-13T09:37:11.238Z,3.20
2023-05-13T09:38:44.371Z,3.00
2023-05-13T09:40:19.011Z,3.30
2023-05-13T09:41:52.244Z,3.47
2023-05-13T09:43:28.895Z,3.33
2023-05-13T09:45:07.608Z,3.63
2023-05-13T09:46:40.735Z,3.80
2023-05-13T09:48:15.432Z,4.03
2023-05-13T09:49:57.033Z,3.50
2023-05-13T09:51:31.165Z,3.33
2023-05-13T09:53:12.794Z,3.43
2023-05-13T09:54:45.847Z,3.50
2023-05-13T09:56:23.871Z,3.33
2023-05-13T09:57:56.922Z,3.63
2023-05-13T09:59:33.236Z,3.77
2023-05-13T10:01:06.491Z,3.50
2023-05-13T10:02:40.084Z,3.53
2023-05-13T10:04:13.499Z,4.17
2023-05-13T10:05:47.231Z,3.60
2023-05-13T10:07:24.410Z,3.70
2023-05-13T10:08:59.509Z,3.40
2023-05-13T10:10:33.768Z,3.13
2023-05-13T10:12:09.616Z,3.63
2023-05-13T10:13:44.607Z,3.17
2023-05-13T10:15:19.869Z,2.90
2023-05-13T10:16:53.669Z,3.10
2023-05-13T10:18:28.999Z,3.70
2023-05-13T10:20:03.652Z,4.90
2023-05-13T10:21:37.604Z,3.50
2023-05-13T10:23:11.273Z,3.30
2023-05-13T10:24:45.198Z,2.93
2023-05-13T10:26:18.557Z,4.77
2023-05-13T10:27:54.099Z,3.03
2023-05-13T10:29:28.636Z,3.13
2023-05-13T10:31:03.084Z,3.67
2023-05-13T10:32:37.989Z,2.93
2023-05-13T10:34:11.749Z,3.20
2023-05-13T10:35:54.812Z,3.20
2023-05-13T10:37:54.241Z,3.27
2023-05-13T10:39:40.354Z,3.20
2023-05-13T10:41:26.810Z,5.47
2023-05-13T10:43:12.880Z,3.30
2023-05-13T10:44:46.113Z,3.00
2023-05-13T10:46:20.833Z,3.40
2023-05-13T10:47:56.107Z,3.30
2023-05-13T10:49:34.740Z,3.60
2023-05-13T10:51:08.874Z,3.30
2023-05-13T10:52:48.442Z,3.90
2023-05-13T10:54:23.458Z,3.07
2023-05-13T10:55:57.880Z,4.40
2023-05-13T10:57:36.930Z,3.40
2023-05-13T10:59:10.014Z,3.60
2023-05-13T11:00:44.712Z,3.10
2023-05-13T11:02:24.344Z,3.20
2023-05-13T11:03:59.376Z,3.30
2023-05-13T11:05:31.680Z,3.27
2023-05-13T11:07:17.089Z,2.90
2023-05-13T11:08:52.497Z,3.33
2023-05-13T11:10:27.421Z,3.30
2023-05-13T11:12:01.350Z,3.10
2023-05-13T11:13:37.911Z,3.27
2023-05-13T11:15:22.795Z,3.13
2023-05-13T11:17:12.241Z,3.20
2023-05-13T11:18:45.809Z,3.00
2023-05-13T11:20:19.953Z,3.00
2023-05-13T11:21:54.718Z,2.83
2023-05-13T11:23:27.815Z,3.33
2023-05-13T11:25:09.087Z,2.60
2023-05-13T11:26:50.090Z,2.63
2023-05-13T11:28:59.944Z,2.70
2023-05-13T11:30:33.934Z,2.60
2023-05-13T11:32:08.160Z,4.93
2023-05-13T11:34:16.846Z,2.57
2023-05-13T11:35:56.709Z,2.73
2023-05-13T11:37:32.422Z,2.80
2023-05-13T11:39:11.932Z,2.53
2023-05-13T11:40:45.907Z,2.90
2023-05-13T11:42:19.254Z,2.60
2023-05-13T11:43:53.769Z,3.07
2023-05-13T11:45:27.953Z,2.33
2023-05-13T11:47:02.373Z,2.73
2023-05-13T11:48:35.907Z,2.70
2023-05-13T11:50:19.507Z,2.50
2023-05-13T11:51:53.959Z,2.10
2023-05-13T11:53:27.024Z,2.30
2023-05-13T11:55:00.144Z,2.30
2023-05-13T11:56:33.197Z,2.30
2023-05-13T11:58:06.306Z,2.40
2023-05-13T11:59:48.023Z,2.17
2023-05-13T12:01:21.978Z,2.83
2023-05-13T12:02:55.520Z,2.40
2023-05-13T12:04:30.468Z,2.50
2023-05-13T12:06:03.592Z,2.27
2023-05-13T12:07:39.485Z,2.50
2023-05-13T12:09:13.627Z,2.33
2023-05-13T12:10:46.826Z,2.30
2023-05-13T12:12:19.845Z,2.30
2023-05-13T12:13:52.995Z,2.50
2023-05-13T12:15:26.197Z,2.40
2023-05-13T12:16:58.741Z,2.60
2023-05-13T12:18:33.718Z,2.50
2023-05-13T12:20:12.633Z,2.88
2023-05-13T12:21:45.777Z,2.40
2023-05-13T12:23:20.216Z,2.70
2023-05-13T12:24:53.298Z,2.90
2023-05-13T12:26:26.456Z,2.50
2023-05-13T12:27:59.493Z,2.50
2023-05-13T12:29:41.238Z,2.27
2023-05-13T12:31:18.508Z,2.77
2023-05-13T12:32:52.195Z,2.80
2023-05-13T12:34:32.250Z,2.60
2023-05-13T12:36:25.757Z,2.53
2023-05-13T12:38:03.087Z,2.60
2023-05-13T12:39:37.714Z,2.63
2023-05-13T12:41:13.888Z,2.70
2023-05-13T12:42:46.961Z,2.40
2023-05-13T12:44:20.120Z,2.50
2023-05-13T12:45:55.653Z,2.80
2023-05-13T12:47:28.776Z,2.77
2023-05-13T12:49:04.546Z,2.77
2023-05-13T12:50:37.701Z,2.80
2023-05-13T12:52:10.142Z,2.63
2023-05-13T12:53:43.204Z,2.80
2023-05-13T12:55:17.979Z,2.57
2023-05-13T12:56:51.046Z,2.80
2023-05-13T12:58:24.167Z,2.67
2023-05-13T12:59:57.219Z,2.80
2023-05-13T13:01:30.435Z,3.20
2023-05-13T13:03:08.492Z,2.80
2023-05-13T13:04:42.024Z,2.83
2023-05-13T13:06:16.050Z,2.77
2023-05-13T13:07:49.596Z,2.70
2023-05-13T13:09:22.649Z,2.40
2023-05-13T13:10:57.164Z,3.10
2023-05-13T13:12:30.229Z,2.80
2023-05-13T13:14:03.360Z,3.00
2023-05-13T13:15:35.471Z,2.80
2023-05-13T13:17:08.669Z,3.07
2023-05-13T13:18:42.076Z,3.23
2023-05-13T13:20:14.306Z,2.83
2023-05-13T13:21:47.429Z,2.77
2023-05-13T13:23:20.643Z,2.73
2023-05-13T13:24:53.740Z,2.60
2023-05-13T13:26:28.298Z,2.87
2023-05-13T13:28:00.852Z,2.70
2023-05-13T13:29:33.947Z,2.77
2023-05-13T13:31:07.804Z,2.87
2023-05-13T13:32:40.918Z,3.10
2023-05-13T13:34:14.140Z,2.80
2023-05-13T13:35:48.190Z,3.10
2023-05-13T13:37:21.317Z,2.77
2023-05-13T13:38:54.460Z,2.87
2023-05-13T13:40:27.748Z,2.93
2023-05-13T13:42:04.575Z,2.47
2023-05-13T13:43:38.078Z,2.90
2023-05-13T13:45:12.576Z,2.80
2023-05-13T13:46:45.734Z,3.00
2023-05-13T13:48:18.867Z,3.07
2023-05-13T13:49:51.747Z,3.03
2023-05-13T13:51:24.967Z,3.10
2023-05-13T13:52:58.094Z,2.97
2023-05-13T13:54:31.153Z,2.90
2023-05-13T13:56:04.478Z,3.00
2023-05-13T13:57:39.051Z,3.03
2023-05-13T13:59:12.140Z,2.77
2023-05-13T14:00:45.229Z,2.90
2023-05-13T14:02:18.604Z,3.10
2023-05-13T14:03:52.199Z,2.80
2023-05-13T14:05:25.390Z,3.00
2023-05-13T14:06:58.704Z,3.43
2023-05-13T14:08:31.797Z,2.83
2023-05-13T14:10:05.732Z,3.10
2023-05-13T14:11:38.830Z,2.80
2023-05-13T14:13:13.473Z,2.77
2023-05-13T14:14:46.540Z,2.83
2023-05-13T14:16:19.875Z,2.83
2023-05-13T14:17:53.022Z,2.70
2023-05-13T14:19:26.376Z,2.67
2023-05-13T14:20:59.451Z,2.90
2023-05-13T14:22:32.634Z,2.60
2023-05-13T14:24:05.211Z,3.00
2023-05-13T14:25:38.328Z,2.90
2023-05-13T14:27:11.469Z,2.87
2023-05-13T14:28:46.348Z,2.70
2023-05-13T14:30:19.774Z,3.40
2023-05-13T14:31:53.100Z,3.17
2023-05-13T14:33:26.239Z,2.60
2023-05-13T14:34:59.376Z,2.93
2023-05-13T14:36:32.737Z,3.10
2023-05-13T14:38:05.848Z,2.43
2023-05-13T14:39:38.964Z,2.97
2023-05-13T14:41:12.632Z,3.00
2023-05-13T14:42:45.757Z,2.83
2023-05-13T14:44:20.193Z,2.87
2023-05-13T14:45:53.354Z,2.63
2023-05-13T14:47:26.729Z,2.73
2023-05-13T14:48:59.857Z,3.20
2023-05-13T14:50:33.543Z,3.20
2023-05-13T14:52:06.942Z,3.27
2023-05-13T14:53:40.131Z,2.70
2023-05-13T14:55:13.287Z,2.97
2023-05-13T14:56:46.631Z,2.63
2023-05-13T14:58:19.747Z,3.00
2023-05-13T14:59:54.182Z,2.97
2023-05-13T15:01:27.391Z,2.70
2023-05-13T15:03:00.717Z,3.20
2023-05-13T15:04:33.868Z,3.30
2023-05-13T15:06:07.534Z,2.80
2023-05-13T15:07:40.644Z,2.90
2023-05-13T15:09:13.763Z,3.10
2023-05-13T15:10:47.119Z,3.10
2023-05-13T15:12:20.216Z,2.90
2023-05-13T15:13:53.253Z,3.00
2023-05-13T15:15:27.760Z,3.13
2023-05-13T15:17:00.984Z,3.10
2023-05-13T15:18:34.624Z,3.10
2023-05-13T15:20:08.892Z,3.37
2023-05-13T15:21:42.070Z,2.93
2023-05-13T15:23:16.101Z,3.20
2023-05-13T15:24:50.623Z,3.20
2023-05-13T15:26:23.994Z,3.37
2023-05-13T15:27:57.378Z,3.67
2023-05-13T15:29:30.797Z,3.50
2023-05-13T15:31:05.717Z,3.43
2023-05-13T15:32:39.205Z,3.17
2023-05-13T15:34:12.610Z,4.10
2023-05-13T15:35:46.062Z,3.20
2023-05-13T15:37:19.450Z,3.43
2023-05-13T15:38:52.832Z,3.50
2023-05-13T15:40:26.239Z,3.60
2023-05-13T15:41:59.632Z,3.67
2023-05-13T15:43:34.128Z,3.73
2023-05-13T15:45:08.378Z,3.67
2023-05-13T15:46:43.005Z,3.60
2023-05-13T15:48:16.331Z,3.73
2023-05-13T15:49:50.795Z,4.27
2023-05-13T15:51:23.930Z,3.67
2023-05-13T15:52:56.987Z,4.07
2023-05-13T15:54:30.133Z,4.10
2023-05-13T15:56:03.282Z,4.40
2023-05-13T15:57:36.415Z,4.60
2023-05-13T15:59:09.477Z,4.47
2023-05-13T16:00:43.017Z,4.83
2023-05-13T16:02:18.337Z,4.80
2023-05-13T16:03:51.461Z,4.63
2023-05-13T16:05:24.605Z,4.23
2023-05-13T16:06:57.774Z,4.87
2023-05-13T16:08:32.282Z,4.90
2023-05-13T16:10:06.313Z,5.07
2023-05-13T16:11:39.754Z,5.20
2023-05-13T16:13:13.169Z,5.60
2023-05-13T16:14:46.700Z,5.20
2023-05-13T16:16:20.578Z,5.03
2023-05-13T16:17:55.429Z,5.43
2023-05-13T16:19:28.815Z,5.20
2023-05-13T16:21:02.348Z,5.43
2023-05-13T16:22:38.252Z,5.60
2023-05-13T16:24:11.743Z,7.03
2023-05-13T16:25:45.123Z,5.70
2023-05-13T16:27:18.680Z,5.67
2023-05-13T16:28:52.244Z,5.43
2023-05-13T16:30:25.688Z,5.53
2023-05-13T16:31:59.111Z,5.90
2023-05-13T16:33:33.893Z,5.63
2023-05-13T16:35:07.956Z,5.40
2023-05-13T16:36:41.334Z,5.90
2023-05-13T16:38:14.818Z,5.40
2023-05-13T16:39:48.472Z,5.20
2023-05-13T16:41:22.821Z,5.33
2023-05-13T16:42:59.281Z,5.43
2023-05-13T16:44:34.525Z,5.30
2023-05-13T16:46:08.000Z,4.83
2023-05-13T16:47:41.369Z,5.70
2023-05-13T16:49:16.222Z,5.50
2023-05-13T16:50:49.605Z,5.53
2023-05-13T16:52:23.051Z,5.17
2023-05-13T16:53:56.485Z,5.30
2023-05-13T16:55:29.905Z,5.43
2023-05-13T16:57:03.303Z,5.33
2023-05-13T16:58:36.706Z,6.07
2023-05-13T17:00:10.612Z,5.57
2023-05-13T17:01:44.129Z,6.10
2023-05-13T17:03:17.839Z,5.73
2023-05-13T17:04:51.799Z,6.27
2023-05-13T17:06:25.181Z,6.10
2023-05-13T17:07:58.585Z,6.40
2023-05-13T17:09:32.055Z,7.13
2023-05-13T17:11:05.490Z,6.10
2023-05-13T17:12:38.908Z,6.83
2023-05-13T17:14:12.344Z,6.53
2023-05-13T17:15:45.728Z,6.50
2023-05-13T17:17:19.152Z,6.40
2023-05-13T17:18:52.627Z,6.90
2023-05-13T17:20:27.398Z,6.27
2023-05-13T17:22:00.836Z,6.47
2023-05-13T17:23:34.466Z,6.60
2023-05-13T17:25:08.506Z,5.90
2023-05-13T17:26:41.900Z,6.10
2023-05-13T17:28:15.272Z,6.47
2023-05-13T17:29:48.687Z,6.10
2023-05-13T17:31:22.166Z,6.63
2023-05-13T17:32:55.673Z,6.60
2023-05-13T17:34:29.092Z,6.23
2023-05-13T17:36:03.886Z,6.27
2023-05-13T17:37:37.276Z,6.00
2023-05-13T17:39:11.078Z,5.83
2023-05-13T17:40:44.467Z,6.60
2023-05-13T17:42:18.049Z,5.93
2023-05-13T17:43:51.461Z,6.07
2023-05-13T17:45:24.895Z,5.90
2023-05-13T17:46:58.332Z,6.10
2023-05-13T17:48:33.142Z,6.33
2023-05-13T17:50:07.784Z,6.87
2023-05-13T17:51:42.945Z,6.23
2023-05-13T17:53:16.327Z,6.20
2023-05-13T17:54:49.719Z,6.20
2023-05-13T17:56:23.192Z,6.17
2023-05-13T17:57:56.693Z,6.07
2023-05-13T17:59:30.112Z,6.10
2023-05-13T18:01:03.621Z,6.47
2023-05-13T18:02:37.171Z,6.40
2023-05-13T18:04:10.643Z,5.90
2023-05-13T18:05:44.157Z,5.73
2023-05-13T18:07:19.472Z,6.03
2023-05-13T18:08:52.909Z,5.87
2023-05-13T18:10:27.311Z,5.60
2023-05-13T18:12:00.815Z,6.07
2023-05-13T18:13:38.943Z,6.47
2023-05-13T18:15:13.033Z,6.60
2023-05-13T18:16:46.452Z,6.13
2023-05-13T18:18:19.910Z,5.93
2023-05-13T18:19:53.672Z,6.43
2023-05-13T18:21:28.917Z,6.37
2023-05-13T18:23:03.671Z,6.10
2023-05-13T18:24:37.407Z,6.67
2023-05-13T18:26:10.754Z,6.83
2023-05-13T18:27:44.221Z,6.30
2023-05-13T18:29:17.629Z,6.70
2023-05-13T18:30:51.021Z,6.47
2023-05-13T18:32:24.497Z,6.20
2023-05-13T18:33:57.918Z,6.53
2023-05-13T18:35:31.293Z,6.67
2023-05-13T18:37:04.678Z,6.80
2023-05-13T18:38:39.609Z,7.13
2023-05-13T18:40:13.386Z,6.53
2023-05-13T18:41:46.837Z,6.53
2023-05-13T18:43:20.230Z,7.30
2023-05-13T18:44:53.705Z,7.20
2023-05-13T18:46:27.150Z,7.07
2023-05-13T18:48:00.716Z,7.50
2023-05-13T18:49:34.301Z,7.53
2023-05-13T18:51:07.669Z,7.17
2023-05-13T18:52:41.175Z,7.10
2023-05-13T18:54:16.127Z,7.70
2023-05-13T18:55:49.523Z,7.53
2023-05-13T18:57:23.913Z,7.40
2023-05-13T18:58:57.298Z,7.57
2023-05-13T19:00:30.840Z,7.30
2023-05-13T19:02:04.442Z,8.40
2023-05-13T19:03:38.084Z,8.00
2023-05-13T19:05:11.748Z,7.93
2023-05-13T19:06:45.205Z,7.40
2023-05-13T19:08:18.670Z,7.40
2023-05-13T19:09:53.414Z,6.83
2023-05-13T19:11:26.765Z,8.27
2023-05-13T19:13:00.206Z,7.63
2023-05-13T19:14:33.630Z,7.90
2023-05-13T19:16:07.794Z,7.77
2023-05-13T19:17:42.189Z,7.47
2023-05-13T19:19:15.685Z,7.50
2023-05-13T19:20:49.115Z,8.10
2023-05-13T19:22:22.521Z,7.80
2023-05-13T19:23:56.007Z,8.43
2023-05-13T19:25:30.829Z,7.77
2023-05-13T19:27:04.240Z,7.63
2023-05-13T19:28:38.421Z,8.67
2023-05-13T19:30:12.820Z,8.43
2023-05-13T19:31:46.215Z,7.70
2023-05-13T19:33:19.591Z,7.73
2023-05-13T19:34:52.967Z,7.80
2023-05-13T19:36:26.475Z,7.67
2023-05-13T19:38:00.222Z,9.43
2023-05-13T19:39:33.615Z,8.40
2023-05-13T19:41:07.359Z,8.93
2023-05-13T19:42:40.774Z,8.90
2023-05-13T19:44:14.154Z,9.40
2023-05-13T19:45:47.502Z,9.07
2023-05-13T19:47:20.901Z,9.43
2023-05-13T19:48:54.291Z,9.97
2023-05-13T19:50:27.771Z,10.37
2023-05-13T19:52:01.283Z,10.27
2023-05-13T19:53:34.694Z,12.13
2023-05-13T19:55:08.659Z,11.60
2023-05-13T19:56:43.509Z,10.77
2023-05-13T19:58:17.590Z,10.63
2023-05-13T19:59:51.694Z,9.60
2023-05-13T20:01:25.330Z,9.93
2023-05-13T20:02:58.946Z,10.13
2023-05-13T20:04:32.571Z,9.60
2023-05-13T20:06:05.029Z,9.77
2023-05-13T20:07:38.427Z,9.63
2023-05-13T20:09:12.369Z,9.73
2023-05-13T20:10:46.326Z,9.60
2023-05-13T20:12:21.563Z,9.53
2023-05-13T20:13:55.739Z,9.07
2023-05-13T20:15:29.132Z,9.40
2023-05-13T20:17:03.670Z,9.57
2023-05-13T20:18:38.247Z,10.00
2023-05-13T20:22:02.870Z,10.20
2023-05-13T20:23:36.216Z,9.43
2023-05-13T20:25:09.910Z,10.47
2023-05-13T20:26:43.268Z,9.93
2023-05-13T20:28:18.077Z,10.40
2023-05-13T20:29:51.970Z,11.00
2023-05-13T20:31:25.373Z,11.20
2023-05-13T20:32:57.807Z,11.13
2023-05-13T20:34:31.273Z,11.33
2023-05-13T20:36:06.307Z,10.43
2023-05-13T20:37:39.731Z,11.30
2023-05-13T20:39:13.346Z,11.13
2023-05-13T20:40:47.296Z,11.77
2023-05-13T20:42:22.404Z,11.70
2023-05-13T20:43:57.228Z,11.10
2023-05-13T20:45:30.656Z,10.77
2023-05-13T20:47:04.149Z,10.53
2023-05-13T20:48:37.519Z,10.20
2023-05-13T20:50:11.431Z,10.87
2023-05-13T20:51:45.151Z,11.17
2023-05-13T20:53:18.575Z,10.13